»·PEaware :: AAL219 KLAX-KSFO

AAL219 :: KLAX-KSFO

FLIGHT INFORMATION

Flight Status: Arrived
Operator:
American Airlines
More flights by this operator :: More flights under this callsign
Pilot: Dave P. (45)
Aircraft: BOEING 737-800
(B738)
More flights by this aircraft type
Origin: KLAX Los Angeles Intl
United States
Destination: KSFO San Francisco Intl
United States
More flights between these airports :: More routes between these airports
Route: SUMMR1 STOKD SERFR SERFR3
File this flight plan on PilotEdge
Remarks: PBN / A1B1C1D1S1S2 DOF / 180609 REG / N738PM EET / KZOA0027 OPR / AAL PER / C RMK / TCAS SIMBRIEF
Altitude:
(Current/Filed)
32,000ft
Speed:
(Current/Filed)
458kts
Departed: 09-Jun-18 07:20 AM
Arrived: 09-Jun-18 08:14 AM
Distance/Time
Traveled:
293nm/0:54
Distance/Time
To Go:
Arrived

Flight Plot

Page will automatically refresh every two minutes.

Flight plan parsing failed; only flown route is shown


Map Options




Map Legend


Flown Route
Filed Route
Departure Airport
Arrival Airport
Navaid (VOR, NDB)
Fix

Horizontal Profiles

Position Reports

Time Latitude Longitude Heading Altitude Ground
Speed
09-Jun-18 07:06 33.939969 -118.401814 352 134ft 0kts
09-Jun-18 07:07 33.939969 -118.401814 352 134ft 0kts
09-Jun-18 07:08 33.939969 -118.401814 352 134ft 0kts
09-Jun-18 07:09 33.939969 -118.401814 352 134ft 0kts
09-Jun-18 07:10 33.939969 -118.401814 352 134ft 0kts
09-Jun-18 07:11 33.939969 -118.401814 352 134ft 0kts
09-Jun-18 07:12 33.939450 -118.401964 36 134ft 0kts
09-Jun-18 07:13 33.939450 -118.401964 36 134ft 0kts
09-Jun-18 07:14 33.939451 -118.401963 36 134ft 0kts
09-Jun-18 07:15 33.939172 -118.400316 145 134ft 10kts
09-Jun-18 07:16 33.939280 -118.395407 82 134ft 17kts
09-Jun-18 07:17 33.940004 -118.388367 82 134ft 21kts
09-Jun-18 07:18 33.940643 -118.382070 82 134ft 12kts
09-Jun-18 07:19 33.939908 -118.380293 233 134ft 5kts
09-Jun-18 07:20 33.937573 -118.403349 262 229ft 167kts
09-Jun-18 07:21 33.931539 -118.462239 263 2719ft 213kts
09-Jun-18 07:22 33.924438 -118.546784 265 5195ft 272kts
09-Jun-18 07:23 33.917131 -118.638346 268 8612ft 281kts
09-Jun-18 07:24 33.917253 -118.735304 270 11275ft 310kts
09-Jun-18 07:25 33.917167 -118.848726 271 12286ft 355kts
09-Jun-18 07:26 33.920964 -118.967953 271 15253ft 363kts
09-Jun-18 07:27 33.956432 -119.083221 299 17933ft 380kts
09-Jun-18 07:28 34.018388 -119.189028 313 20395ft 397kts
09-Jun-18 07:29 34.108266 -119.270705 320 22566ft 412kts
09-Jun-18 07:30 34.202862 -119.352088 320 23272ft 421kts
09-Jun-18 07:31 34.298472 -119.434736 320 25277ft 427kts
09-Jun-18 07:32 34.396198 -119.519728 319 26959ft 437kts
09-Jun-18 07:33 34.484365 -119.622209 311 28465ft 443kts
09-Jun-18 07:34 34.570430 -119.728697 310 30341ft 439kts
09-Jun-18 07:35 34.641280 -119.816496 310 31870ft 436kts
09-Jun-18 07:36 34.726692 -119.921966 310 32050ft 434kts
09-Jun-18 07:37 34.811435 -120.027171 310 32075ft 433kts
09-Jun-18 07:38 34.909515 -120.149192 310 32094ft 432kts
09-Jun-18 07:39 34.993240 -120.254065 309 32095ft 432kts
09-Jun-18 07:40 35.077062 -120.359460 309 32092ft 431kts
09-Jun-18 07:41 35.164878 -120.460004 313 32087ft 433kts
09-Jun-18 07:42 35.253853 -120.559277 313 32081ft 433kts
09-Jun-18 07:43 35.342849 -120.659006 312 32083ft 433kts
09-Jun-18 07:44 35.431150 -120.758888 312 32094ft 432kts
09-Jun-18 07:45 35.522123 -120.855289 318 32108ft 435kts
09-Jun-18 07:46 35.602642 -120.929203 317 32111ft 431kts
09-Jun-18 07:47 35.698197 -121.017976 317 32117ft 430kts
09-Jun-18 07:48 35.793533 -121.106799 317 32120ft 430kts
09-Jun-18 07:49 35.888737 -121.195524 317 32123ft 429kts
09-Jun-18 07:50 35.983793 -121.284915 317 32127ft 428kts
09-Jun-18 07:51 36.077909 -121.372965 318 30683ft 422kts
09-Jun-18 07:52 36.175805 -121.449138 321 28564ft 409kts
09-Jun-18 07:53 36.270584 -121.522514 320 26518ft 396kts
09-Jun-18 07:54 36.363003 -121.594885 320 24487ft 388kts
09-Jun-18 07:55 36.452660 -121.665505 320 22501ft 382kts
09-Jun-18 07:56 36.541692 -121.735616 320 20674ft 372kts
09-Jun-18 07:57 36.628671 -121.804482 320 18796ft 366kts
09-Jun-18 07:58 36.714172 -121.872429 320 16704ft 361kts
09-Jun-18 07:59 36.807107 -121.913009 341 14768ft 354kts
09-Jun-18 08:00 36.918564 -121.943649 341 12881ft 351kts
09-Jun-18 08:01 36.994516 -121.968416 336 12137ft 314kts
09-Jun-18 08:02 37.072599 -121.999738 336 11159ft 287kts
09-Jun-18 08:03 37.147227 -122.029176 337 9929ft 279kts
09-Jun-18 08:04 37.221928 -122.058527 338 8860ft 284kts
09-Jun-18 08:05 37.297088 -122.088056 338 7562ft 275kts
09-Jun-18 08:06 37.366912 -122.115576 338 6162ft 252kts
09-Jun-18 08:07 37.429161 -122.137379 340 5288ft 219kts
09-Jun-18 08:08 37.482880 -122.155780 339 4129ft 193kts
09-Jun-18 08:09 37.531866 -122.176322 309 3023ft 169kts
09-Jun-18 08:10 37.555833 -122.225441 296 2340ft 162kts
09-Jun-18 08:11 37.576316 -122.274003 297 1502ft 148kts
09-Jun-18 08:12 37.594182 -122.316531 294 775ft 131kts
09-Jun-18 08:13 37.611209 -122.357111 294 78ft 130kts
09-Jun-18 08:14 37.618984 -122.377605 268 21ft 13kts
09-Jun-18 08:15 37.617770 -122.379476 166 21ft 10kts
09-Jun-18 08:16 37.617110 -122.380247 277 21ft 2kts
09-Jun-18 08:17 37.617116 -122.380314 276 21ft 0kts
09-Jun-18 08:18 37.617116 -122.380314 276 21ft 0kts
09-Jun-18 08:19 37.617116 -122.380314 276 21ft 0kts
09-Jun-18 08:20 37.617116 -122.380314 276 21ft 0kts
09-Jun-18 08:21 37.617116 -122.380314 276 21ft 0kts
09-Jun-18 08:22 37.617116 -122.380314 276 21ft 0kts

Navigation Log

Ident Type
Flight plan parsing failed, navigation log unavailable